createdAt,value
2022-12-01T00:01:52.396Z,100.00
2022-12-01T00:04:21.421Z,100.00
2022-12-01T00:06:50.642Z,100.00
2022-12-01T00:09:36.664Z,100.00
2022-12-01T00:12:07.781Z,100.00
2022-12-01T00:14:36.669Z,100.00
2022-12-01T00:17:06.105Z,100.00
2022-12-01T00:19:37.787Z,100.00
2022-12-01T00:22:06.536Z,100.00
2022-12-01T00:24:35.686Z,100.00
2022-12-01T00:27:04.983Z,100.00
2022-12-01T00:29:36.921Z,100.00
2022-12-01T00:32:06.446Z,100.00
2022-12-01T00:34:39.772Z,100.00
2022-12-01T00:37:09.033Z,100.00
2022-12-01T00:39:37.716Z,100.00
2022-12-01T00:42:11.739Z,100.00
2022-12-01T00:44:45.861Z,100.00
2022-12-01T00:47:14.891Z,100.00
2022-12-01T00:49:45.719Z,100.00
2022-12-01T00:52:15.319Z,100.00
2022-12-01T00:54:44.489Z,100.00
2022-12-01T00:57:14.005Z,100.00
2022-12-01T00:59:49.771Z,100.00
2022-12-01T01:02:18.863Z,100.00
2022-12-01T01:04:47.786Z,100.00
2022-12-01T01:07:20.494Z,100.00
2022-12-01T01:09:50.424Z,100.00
2022-12-01T01:12:19.432Z,100.00
2022-12-01T01:14:49.706Z,100.00
2022-12-01T01:17:18.805Z,100.00
2022-12-01T01:19:48.163Z,100.00
2022-12-01T01:22:20.414Z,100.00
2022-12-01T01:24:49.766Z,100.00
2022-12-01T01:27:19.047Z,100.00
2022-12-01T01:29:49.392Z,100.00
2022-12-01T01:32:18.662Z,100.00
2022-12-01T01:34:49.531Z,100.00
2022-12-01T01:37:18.920Z,100.00
2022-12-01T01:39:47.907Z,100.00
2022-12-01T01:42:20.719Z,100.00
2022-12-01T01:44:56.345Z,100.00
2022-12-01T01:47:28.576Z,100.00
2022-12-01T01:50:00.793Z,100.00
2022-12-01T01:52:30.030Z,100.00
2022-12-01T01:54:59.385Z,100.00
2022-12-01T01:57:31.894Z,100.00
2022-12-01T02:00:08.049Z,100.00
2022-12-01T02:02:44.854Z,100.00
2022-12-01T02:05:18.455Z,100.00
2022-12-01T02:07:48.178Z,100.00
2022-12-01T02:10:22.753Z,100.00
2022-12-01T02:13:05.279Z,100.00
2022-12-01T02:15:43.635Z,100.00
2022-12-01T02:18:24.900Z,100.00
2022-12-01T02:21:27.135Z,100.00
2022-12-01T02:24:34.150Z,100.00
2022-12-01T02:27:08.291Z,100.00
2022-12-01T02:30:03.349Z,100.00
2022-12-01T02:32:47.325Z,100.00
2022-12-01T02:35:22.231Z,100.00
2022-12-01T02:38:04.253Z,100.00
2022-12-01T02:40:39.618Z,100.00
2022-12-01T02:43:15.501Z,100.00
2022-12-01T02:45:50.113Z,100.00
2022-12-01T02:48:27.186Z,100.00
2022-12-01T02:50:58.992Z,100.00
2022-12-01T02:53:28.044Z,100.00
2022-12-01T02:56:00.026Z,100.00
2022-12-01T02:58:29.390Z,100.00
2022-12-01T03:01:13.414Z,100.00
2022-12-01T03:04:00.795Z,100.00
2022-12-01T03:06:42.122Z,100.00
2022-12-01T03:09:19.118Z,100.00
2022-12-01T03:11:57.565Z,100.00
2022-12-01T03:14:36.432Z,100.00
2022-12-01T03:17:09.861Z,100.00
2022-12-01T03:19:43.786Z,100.00
2022-12-01T03:22:15.652Z,100.00
2022-12-01T03:24:49.604Z,100.00
2022-12-01T03:27:24.035Z,100.00
2022-12-01T03:29:56.746Z,100.00
2022-12-01T03:32:32.725Z,100.00
2022-12-01T03:35:08.960Z,100.00
2022-12-01T03:37:42.719Z,100.00
2022-12-01T03:40:18.212Z,100.00
2022-12-01T03:42:51.238Z,100.00
2022-12-01T03:45:25.558Z,100.00
2022-12-01T03:47:57.057Z,100.00
2022-12-01T03:50:37.040Z,100.00
2022-12-01T03:53:12.187Z,100.00
2022-12-01T03:55:45.001Z,100.00
2022-12-01T03:58:18.735Z,100.00
2022-12-01T04:00:51.711Z,100.00
2022-12-01T04:03:24.751Z,100.00
2022-12-01T04:05:59.079Z,100.00
2022-12-01T04:08:28.464Z,100.00
2022-12-01T04:10:57.504Z,100.00
2022-12-01T04:13:26.681Z,100.00
2022-12-01T04:15:56.459Z,100.00
2022-12-01T04:18:28.137Z,100.00
2022-12-01T04:21:01.226Z,100.00
2022-12-01T04:23:50.560Z,100.00
2022-12-01T04:26:19.582Z,100.00
2022-12-01T04:28:49.002Z,100.00
2022-12-01T04:31:18.245Z,100.00
2022-12-01T04:33:47.272Z,100.00
2022-12-01T04:36:18.317Z,100.00
2022-12-01T04:38:49.501Z,100.00
2022-12-01T04:41:18.744Z,100.00
2022-12-01T04:43:47.741Z,100.00
2022-12-01T04:46:18.969Z,100.00
2022-12-01T04:48:48.231Z,100.00
2022-12-01T04:51:19.851Z,100.00
2022-12-01T04:53:48.991Z,100.00
2022-12-01T04:56:20.527Z,100.00
2022-12-01T04:58:49.912Z,100.00
2022-12-01T05:01:19.709Z,100.00
2022-12-01T05:03:50.903Z,100.00
2022-12-01T05:06:25.828Z,100.00
2022-12-01T05:08:57.902Z,100.00
2022-12-01T05:11:29.052Z,100.00
2022-12-01T05:13:58.416Z,100.00
2022-12-01T05:16:29.311Z,100.00
2022-12-01T05:19:14.647Z,100.00
2022-12-01T05:21:48.057Z,100.00
2022-12-01T05:24:17.380Z,100.00
2022-12-01T05:26:46.790Z,100.00
2022-12-01T05:29:16.442Z,100.00
2022-12-01T05:31:47.702Z,100.00
2022-12-01T05:34:16.814Z,100.00
2022-12-01T05:36:47.173Z,100.00
2022-12-01T05:39:16.192Z,100.00
2022-12-01T05:41:46.550Z,100.00
2022-12-01T05:44:15.339Z,100.00
2022-12-01T05:46:49.043Z,100.00
2022-12-01T05:49:18.108Z,100.00
2022-12-01T05:51:48.539Z,100.00
2022-12-01T05:54:17.665Z,100.00
2022-12-01T05:56:46.886Z,100.00
2022-12-01T05:59:15.890Z,100.00
2022-12-01T06:01:45.544Z,100.00
2022-12-01T06:04:14.697Z,100.00
2022-12-01T06:06:44.013Z,100.00
2022-12-01T06:09:16.887Z,100.00
2022-12-01T06:11:50.093Z,100.00
2022-12-01T06:14:21.778Z,100.00
2022-12-01T06:16:51.204Z,100.00
2022-12-01T06:19:20.496Z,100.00
2022-12-01T06:21:50.461Z,100.00
2022-12-01T06:24:21.075Z,100.00
2022-12-01T06:26:50.084Z,100.00
2022-12-01T06:29:20.928Z,100.00
2022-12-01T06:31:50.484Z,100.00
2022-12-01T06:34:19.707Z,100.00
2022-12-01T06:36:51.120Z,100.00
2022-12-01T06:39:21.706Z,100.00
2022-12-01T06:41:51.086Z,100.00
2022-12-01T06:44:24.137Z,100.00
2022-12-01T06:46:53.323Z,100.00
2022-12-01T06:49:22.344Z,100.00
2022-12-01T06:51:52.097Z,100.00
2022-12-01T06:54:23.305Z,100.00
2022-12-01T06:56:52.197Z,100.00
2022-12-01T06:59:21.921Z,100.00
2022-12-01T07:01:51.329Z,100.00
2022-12-01T07:04:23.079Z,100.00
2022-12-01T07:06:52.096Z,100.00
2022-12-01T07:09:22.940Z,100.00
2022-12-01T07:11:51.956Z,100.00
2022-12-01T07:14:25.341Z,100.00
2022-12-01T07:16:55.495Z,100.00
2022-12-01T07:19:24.708Z,100.00
2022-12-01T07:21:54.564Z,100.00
2022-12-01T07:24:25.860Z,100.00
2022-12-01T07:26:55.563Z,100.00
2022-12-01T07:29:25.339Z,100.00
2022-12-01T07:31:54.101Z,100.00
2022-12-01T07:34:22.788Z,100.00
2022-12-01T07:36:51.560Z,100.00
2022-12-01T07:39:20.318Z,100.00
2022-12-01T07:41:53.585Z,100.00
2022-12-01T07:44:22.451Z,100.00
2022-12-01T07:46:53.620Z,100.00
2022-12-01T07:49:24.541Z,100.00
2022-12-01T07:51:53.398Z,100.00
2022-12-01T07:54:22.334Z,100.00
2022-12-01T07:56:51.181Z,100.00
2022-12-01T07:59:21.432Z,100.00
2022-12-01T08:01:50.318Z,100.00
2022-12-01T08:04:19.451Z,100.00
2022-12-01T08:06:48.350Z,100.00
2022-12-01T08:09:17.593Z,100.00
2022-12-01T08:11:46.351Z,100.00
2022-12-01T08:14:15.509Z,100.00
2022-12-01T08:16:46.827Z,100.00
2022-12-01T08:19:16.133Z,100.00
2022-12-01T08:21:46.081Z,100.00
2022-12-01T08:24:19.649Z,100.00
2022-12-01T08:26:49.038Z,100.00
2022-12-01T08:29:20.434Z,100.00
2022-12-01T08:31:53.764Z,100.00
2022-12-01T08:34:24.284Z,100.00
2022-12-01T08:36:53.350Z,100.00
2022-12-01T08:39:23.364Z,100.00
2022-12-01T08:41:52.220Z,100.00
2022-12-01T08:44:21.483Z,100.00
2022-12-01T08:46:51.503Z,100.00
2022-12-01T08:49:22.937Z,100.00
2022-12-01T08:51:56.267Z,100.00
2022-12-01T08:54:25.017Z,100.00
2022-12-01T08:56:53.698Z,100.00
2022-12-01T08:59:22.444Z,100.00
2022-12-01T09:01:54.078Z,100.00
2022-12-01T09:04:26.308Z,100.00
2022-12-01T09:06:56.328Z,100.00
2022-12-01T09:09:26.542Z,100.00
2022-12-01T09:11:56.432Z,100.00
2022-12-01T09:14:26.017Z,100.00
2022-12-01T09:16:57.159Z,100.00
2022-12-01T09:19:31.903Z,100.00
2022-12-01T09:22:05.882Z,100.00
2022-12-01T09:24:40.034Z,100.00
2022-12-01T09:27:11.390Z,100.00
2022-12-01T09:29:40.307Z,100.00
2022-12-01T09:32:08.993Z,100.00
2022-12-01T09:34:39.029Z,100.00
2022-12-01T09:37:08.028Z,100.00
2022-12-01T09:39:37.628Z,100.00
2022-12-01T09:42:12.882Z,100.00
2022-12-01T09:44:46.165Z,100.00
2022-12-01T09:47:22.368Z,100.00
2022-12-01T09:50:02.503Z,100.00
2022-12-01T09:52:42.016Z,100.00
2022-12-01T09:55:13.747Z,100.00
2022-12-01T09:57:43.445Z,100.00
2022-12-01T10:00:18.533Z,100.00
2022-12-01T10:02:51.714Z,100.00
2022-12-01T10:05:28.223Z,100.00
2022-12-01T10:08:01.734Z,100.00
2022-12-01T10:10:35.839Z,100.00
2022-12-01T10:13:17.056Z,100.00
2022-12-01T10:15:56.067Z,100.00
2022-12-01T10:18:42.725Z,100.00
2022-12-01T10:21:24.036Z,100.00
2022-12-01T10:24:07.000Z,100.00
2022-12-01T10:26:46.980Z,100.00
2022-12-01T10:29:28.450Z,100.00
2022-12-01T10:32:03.314Z,100.00
2022-12-01T10:34:36.444Z,100.00
2022-12-01T10:37:11.505Z,100.00
2022-12-01T10:39:43.816Z,100.00
2022-12-01T10:42:18.383Z,100.00
2022-12-01T10:44:49.243Z,100.00
2022-12-01T10:47:22.015Z,100.00
2022-12-01T10:49:51.244Z,100.00
2022-12-01T10:52:40.369Z,100.00
2022-12-01T10:55:27.831Z,98.59
2022-12-01T10:57:58.938Z,99.25
2022-12-01T11:03:22.324Z,98.64
2022-12-01T11:05:53.965Z,97.91
2022-12-01T11:08:26.582Z,98.12
2022-12-01T11:10:58.572Z,95.55
2022-12-01T11:13:29.540Z,97.11
2022-12-01T11:16:00.181Z,96.65
2022-12-01T11:18:32.938Z,95.62
2022-12-01T11:21:11.353Z,95.40
2022-12-01T11:23:47.641Z,94.72
2022-12-01T11:26:27.727Z,94.40
2022-12-01T11:28:58.896Z,95.54
2022-12-01T11:31:39.272Z,93.31
2022-12-01T11:34:20.827Z,93.68
2022-12-01T11:36:56.015Z,90.99
2022-12-01T11:39:32.414Z,91.81
2022-12-01T11:42:03.882Z,91.81
2022-12-01T11:44:50.973Z,90.86
2022-12-01T11:47:24.121Z,90.66
2022-12-01T11:49:55.584Z,89.56
2022-12-01T11:52:30.677Z,89.49
2022-12-01T11:55:09.765Z,87.01
2022-12-01T11:57:42.096Z,87.73
2022-12-01T12:00:15.405Z,85.94
2022-12-01T12:02:55.322Z,85.71
2022-12-01T12:06:11.672Z,85.49
2022-12-01T12:09:04.651Z,85.72
2022-12-01T12:11:46.187Z,84.80
2022-12-01T12:14:29.727Z,85.52
2022-12-01T12:17:24.188Z,84.42
2022-12-01T12:20:31.886Z,82.88
2022-12-01T12:23:26.355Z,83.38
2022-12-01T12:26:06.058Z,82.64
2022-12-01T12:28:52.358Z,81.75
2022-12-01T12:31:35.631Z,80.60
2022-12-01T12:34:14.610Z,80.68
2022-12-01T12:36:48.541Z,81.65
2022-12-01T12:39:30.697Z,81.44
2022-12-01T12:42:00.609Z,80.45
2022-12-01T12:44:47.560Z,80.84
2022-12-01T12:47:36.869Z,81.86
2022-12-01T12:50:19.145Z,82.02
2022-12-01T12:52:51.434Z,81.56
2022-12-01T12:55:25.828Z,81.01
2022-12-01T12:57:58.411Z,81.43
2022-12-01T13:00:30.412Z,80.77
2022-12-01T13:03:04.882Z,80.87
2022-12-01T13:05:40.775Z,79.74
2022-12-01T13:08:15.819Z,77.31
2022-12-01T13:10:53.530Z,79.39
2022-12-01T13:13:32.204Z,78.38
2022-12-01T13:16:11.706Z,78.88
2022-12-01T13:18:46.003Z,78.13
2022-12-01T13:21:18.638Z,78.39
2022-12-01T13:23:48.939Z,78.75
2022-12-01T13:26:21.410Z,77.36
2022-12-01T13:28:53.470Z,78.14
2022-12-01T13:31:26.219Z,76.64
2022-12-01T13:33:59.222Z,77.13
2022-12-01T13:39:22.880Z,77.78
2022-12-01T13:42:01.434Z,77.74
2022-12-01T13:44:38.647Z,78.65
2022-12-01T13:47:38.064Z,77.84
2022-12-01T13:50:55.852Z,77.78
2022-12-01T13:53:37.077Z,77.90
2022-12-01T13:56:27.982Z,77.56
2022-12-01T13:58:56.903Z,77.94
2022-12-01T14:01:46.979Z,78.72
2022-12-01T14:04:31.470Z,77.82
2022-12-01T14:07:38.552Z,79.48
2022-12-01T14:10:24.194Z,79.60
2022-12-01T14:12:59.521Z,79.59
2022-12-01T14:15:35.272Z,80.49
2022-12-01T14:18:08.004Z,80.47
2022-12-01T14:20:49.903Z,81.11
2022-12-01T14:23:25.390Z,81.86
2022-12-01T14:26:12.948Z,81.67
2022-12-01T14:29:28.253Z,82.03
2022-12-01T14:32:26.967Z,82.36
2022-12-01T14:35:12.791Z,82.89
2022-12-01T14:37:50.038Z,83.20
2022-12-01T14:40:24.662Z,83.54
2022-12-01T14:43:16.212Z,83.91
2022-12-01T14:45:56.032Z,83.93
2022-12-01T14:48:29.159Z,84.36
2022-12-01T14:51:15.253Z,84.94
2022-12-01T14:53:49.561Z,85.03
2022-12-01T14:56:23.140Z,85.02
2022-12-01T14:58:54.098Z,85.17
2022-12-01T15:01:24.501Z,85.49
2022-12-01T15:03:57.960Z,85.32
2022-12-01T15:06:29.634Z,85.42
2022-12-01T15:09:32.812Z,85.45
2022-12-01T15:12:02.025Z,84.98
2022-12-01T15:14:35.264Z,85.50
2022-12-01T15:17:09.160Z,85.29
2022-12-01T15:19:44.014Z,85.18
2022-12-01T15:22:19.152Z,84.94
2022-12-01T15:24:49.829Z,85.13
2022-12-01T15:27:27.854Z,84.63
2022-12-01T15:29:58.435Z,85.29
2022-12-01T15:32:28.501Z,85.27
2022-12-01T15:35:01.978Z,85.09
2022-12-01T15:37:36.442Z,84.91
2022-12-01T15:40:59.747Z,85.22
2022-12-01T15:43:03.198Z,85.17
2022-12-01T15:45:43.468Z,85.11
2022-12-01T15:48:18.047Z,85.15
2022-12-01T15:51:00.390Z,85.12
2022-12-01T15:53:33.588Z,85.57
2022-12-01T15:56:12.536Z,85.55
2022-12-01T15:58:47.668Z,85.61
2022-12-01T16:01:19.428Z,85.90
2022-12-01T16:03:55.765Z,85.68
2022-12-01T16:06:28.668Z,85.58
2022-12-01T16:09:02.786Z,85.98
2022-12-01T16:11:33.245Z,85.99
2022-12-01T16:14:06.915Z,86.01
2022-12-01T16:16:42.857Z,86.23
2022-12-01T16:19:29.746Z,85.99
2022-12-01T16:22:04.860Z,86.61
2022-12-01T16:24:36.293Z,86.77
2022-12-01T16:27:17.932Z,87.04
2022-12-01T16:29:51.512Z,87.33
2022-12-01T16:32:24.544Z,87.30
2022-12-01T16:34:55.422Z,87.77
2022-12-01T16:37:28.550Z,87.56
2022-12-01T16:40:00.778Z,87.80
2022-12-01T16:42:31.585Z,87.88
2022-12-01T16:45:00.739Z,88.23
2022-12-01T16:47:33.079Z,88.16
2022-12-01T16:50:02.794Z,88.21
2022-12-01T16:52:48.288Z,88.10
2022-12-01T16:55:38.855Z,88.12
2022-12-01T16:58:10.001Z,88.01
2022-12-01T17:00:39.973Z,88.16
2022-12-01T17:03:12.094Z,88.21
2022-12-01T17:05:40.881Z,88.37
2022-12-01T17:08:15.630Z,88.58
2022-12-01T17:10:45.453Z,88.59
2022-12-01T17:13:19.257Z,88.81
2022-12-01T17:15:50.245Z,88.86
2022-12-01T17:18:24.171Z,89.03
2022-12-01T17:21:01.816Z,88.82
2022-12-01T17:23:37.939Z,89.16
2022-12-01T17:26:13.787Z,89.37
2022-12-01T17:28:45.809Z,89.59
2022-12-01T17:31:16.291Z,89.76
2022-12-01T17:33:45.296Z,89.97
2022-12-01T17:36:16.279Z,90.06
2022-12-01T17:38:49.772Z,90.27
2022-12-01T17:41:23.022Z,90.01
2022-12-01T17:43:54.279Z,90.29
2022-12-01T17:46:26.164Z,90.77
2022-12-01T17:48:59.395Z,90.88
2022-12-01T17:51:29.021Z,91.27
2022-12-01T17:53:58.990Z,91.36
2022-12-01T17:56:28.677Z,91.61
2022-12-01T17:58:59.661Z,91.83
2022-12-01T18:01:30.764Z,92.02
2022-12-01T18:03:59.840Z,92.38
2022-12-01T18:06:28.882Z,92.53
2022-12-01T18:09:01.237Z,92.64
2022-12-01T18:11:30.203Z,92.68
2022-12-01T18:14:03.170Z,92.44
2022-12-01T18:16:33.476Z,92.14
2022-12-01T18:19:03.317Z,92.38
2022-12-01T18:21:34.926Z,92.25
2022-12-01T18:24:05.587Z,92.35
2022-12-01T18:26:40.579Z,92.16
2022-12-01T18:29:14.019Z,92.08
2022-12-01T18:31:42.988Z,92.06
2022-12-01T18:34:12.859Z,91.99
2022-12-01T18:36:42.266Z,92.16
2022-12-01T18:39:12.485Z,92.29
2022-12-01T18:41:41.648Z,92.08
2022-12-01T18:44:16.360Z,91.96
2022-12-01T18:46:47.165Z,92.15
2022-12-01T18:49:21.328Z,92.01
2022-12-01T18:51:52.210Z,92.01
2022-12-01T18:54:21.162Z,92.25
2022-12-01T18:56:53.032Z,92.14
2022-12-01T18:59:23.241Z,92.46
2022-12-01T19:01:54.701Z,92.44
2022-12-01T19:04:26.403Z,92.78
2022-12-01T19:06:55.447Z,92.59
2022-12-01T19:09:24.142Z,92.91
2022-12-01T19:11:59.850Z,92.89
2022-12-01T19:14:33.219Z,93.04
2022-12-01T19:17:02.888Z,93.31
2022-12-01T19:19:37.416Z,93.33
2022-12-01T19:22:08.819Z,93.16
2022-12-01T19:24:37.685Z,93.38
2022-12-01T19:27:08.631Z,93.26
2022-12-01T19:29:38.898Z,93.29
2022-12-01T19:32:10.478Z,93.27
2022-12-01T19:34:39.164Z,93.31
2022-12-01T19:37:13.838Z,93.33
2022-12-01T19:39:42.789Z,93.42
2022-12-01T19:42:14.193Z,93.56
2022-12-01T19:44:47.668Z,93.82
2022-12-01T19:47:22.395Z,94.02
2022-12-01T19:49:51.452Z,94.27
2022-12-01T19:52:20.205Z,94.25
2022-12-01T19:54:49.411Z,94.56
2022-12-01T19:57:18.290Z,94.42
2022-12-01T19:59:48.428Z,94.63
2022-12-01T20:02:17.477Z,94.81
2022-12-01T20:04:46.213Z,95.00
2022-12-01T20:07:14.983Z,94.95
2022-12-01T20:09:49.583Z,95.28
2022-12-01T20:12:18.876Z,95.17
2022-12-01T20:14:49.516Z,95.42
2022-12-01T20:17:18.851Z,95.42
2022-12-01T20:19:53.797Z,95.77
2022-12-01T20:22:22.672Z,95.80
2022-12-01T20:24:51.861Z,95.96
2022-12-01T20:27:20.647Z,96.10
2022-12-01T20:29:51.215Z,96.33
2022-12-01T20:32:23.474Z,96.56
2022-12-01T20:34:52.850Z,96.37
2022-12-01T20:37:21.784Z,96.54
2022-12-01T20:39:50.671Z,96.99
2022-12-01T20:42:22.313Z,98.13
2022-12-01T20:44:52.773Z,98.15
2022-12-01T20:47:22.088Z,98.27
2022-12-01T20:49:54.236Z,98.19
2022-12-01T20:52:27.062Z,98.32
2022-12-01T20:54:56.319Z,98.21
2022-12-01T20:57:25.095Z,98.16
2022-12-01T20:59:55.205Z,98.21
2022-12-01T21:02:39.672Z,98.28
2022-12-01T21:05:09.278Z,98.27
2022-12-01T21:07:41.639Z,98.25
2022-12-01T21:10:14.536Z,98.38
2022-12-01T21:13:10.825Z,98.55
2022-12-01T21:15:50.932Z,98.72
2022-12-01T21:18:23.322Z,98.80
2022-12-01T21:21:03.614Z,98.67
2022-12-01T21:23:33.186Z,99.95
2022-12-01T21:26:02.656Z,98.58
2022-12-01T21:28:31.546Z,94.26
2022-12-01T21:31:11.578Z,95.08
2022-12-01T21:33:43.179Z,96.95
2022-12-01T21:36:16.997Z,97.43
2022-12-01T21:38:47.260Z,98.00
2022-12-01T21:41:26.019Z,98.34
2022-12-01T21:43:57.079Z,98.25
2022-12-01T21:46:28.514Z,98.44
2022-12-01T21:48:57.974Z,98.72
2022-12-01T21:51:27.635Z,99.10
2022-12-01T21:53:57.855Z,99.18
2022-12-01T21:56:28.640Z,99.64
2022-12-01T21:59:05.663Z,99.91
2022-12-01T22:01:36.205Z,99.91
2022-12-01T22:04:13.232Z,99.35
2022-12-01T22:06:47.726Z,99.62
2022-12-01T22:09:26.606Z,99.62
2022-12-01T22:11:57.463Z,99.54
2022-12-01T22:14:30.320Z,99.71
2022-12-01T22:17:13.708Z,99.66
2022-12-01T22:19:46.872Z,99.68
2022-12-01T22:22:23.253Z,100.00
2022-12-01T22:24:53.869Z,100.00
2022-12-01T22:27:33.466Z,100.00
2022-12-01T22:30:17.826Z,100.00
2022-12-01T22:32:56.047Z,99.76
2022-12-01T22:35:36.495Z,100.00
2022-12-01T22:38:36.559Z,99.52
2022-12-01T22:41:12.745Z,100.00
2022-12-01T22:43:47.304Z,100.00
2022-12-01T22:46:30.979Z,100.00
2022-12-01T22:49:04.135Z,100.00
2022-12-01T22:51:43.732Z,100.00
2022-12-01T22:54:30.554Z,100.00
2022-12-01T22:57:09.274Z,100.00
2022-12-01T22:59:43.413Z,100.00
2022-12-01T23:02:21.968Z,100.00
2022-12-01T23:04:56.741Z,100.00
2022-12-01T23:07:35.637Z,100.00
2022-12-01T23:10:08.974Z,100.00
2022-12-01T23:12:38.064Z,100.00
2022-12-01T23:15:32.169Z,100.00
2022-12-01T23:18:14.233Z,100.00
2022-12-01T23:20:49.105Z,100.00
2022-12-01T23:23:20.409Z,100.00
2022-12-01T23:25:52.176Z,100.00
2022-12-01T23:28:24.060Z,100.00
2022-12-01T23:30:56.181Z,100.00
2022-12-01T23:33:27.250Z,100.00
2022-12-01T23:36:01.391Z,100.00
2022-12-01T23:38:36.074Z,100.00
2022-12-01T23:41:08.169Z,100.00
2022-12-01T23:43:40.910Z,100.00
2022-12-01T23:46:12.882Z,100.00
2022-12-01T23:48:44.997Z,100.00
2022-12-01T23:51:20.228Z,100.00
2022-12-01T23:53:50.891Z,100.00
2022-12-01T23:56:23.874Z,100.00
2022-12-01T23:58:53.619Z,100.00
